sensor_id;sensor_type;location;lat;lon;timestamp;P1;durP1;ratioP1;P2;durP2;ratioP2
6197;SDS011;3132;42.622;23.328;2024-02-15T00:01:06;16.50;;;15.00;;
6197;SDS011;3132;42.622;23.328;2024-02-15T00:09:47;16.83;;;15.50;;
6197;SDS011;3132;42.622;23.328;2024-02-15T00:12:12;16.30;;;14.63;;
6197;SDS011;3132;42.622;23.328;2024-02-15T00:14:38;16.37;;;15.07;;
6197;SDS011;3132;42.622;23.328;2024-02-15T00:17:03;16.83;;;15.50;;
6197;SDS011;3132;42.622;23.328;2024-02-15T00:19:29;17.70;;;15.93;;
6197;SDS011;3132;42.622;23.328;2024-02-15T00:21:55;17.37;;;15.87;;
6197;SDS011;3132;42.622;23.328;2024-02-15T00:24:21;17.00;;;15.53;;
6197;SDS011;3132;42.622;23.328;2024-02-15T00:26:47;16.63;;;15.20;;
6197;SDS011;3132;42.622;23.328;2024-02-15T00:29:13;16.97;;;15.67;;
6197;SDS011;3132;42.622;23.328;2024-02-15T00:31:38;15.97;;;14.63;;
6197;SDS011;3132;42.622;23.328;2024-02-15T00:34:04;16.80;;;15.50;;
6197;SDS011;3132;42.622;23.328;2024-02-15T00:36:30;16.03;;;14.80;;
6197;SDS011;3132;42.622;23.328;2024-02-15T00:38:57;16.93;;;15.63;;
6197;SDS011;3132;42.622;23.328;2024-02-15T00:41:22;16.17;;;14.97;;
6197;SDS011;3132;42.622;23.328;2024-02-15T00:43:48;17.27;;;15.57;;
6197;SDS011;3132;42.622;23.328;2024-02-15T00:46:14;17.50;;;16.10;;
6197;SDS011;3132;42.622;23.328;2024-02-15T00:48:41;17.40;;;15.80;;
6197;SDS011;3132;42.622;23.328;2024-02-15T00:51:06;15.53;;;14.30;;
6197;SDS011;3132;42.622;23.328;2024-02-15T00:53:32;15.90;;;14.60;;
6197;SDS011;3132;42.622;23.328;2024-02-15T00:55:57;17.90;;;16.40;;
6197;SDS011;3132;42.622;23.328;2024-02-15T00:58:23;15.20;;;14.10;;
6197;SDS011;3132;42.622;23.328;2024-02-15T01:00:49;18.47;;;15.73;;
6197;SDS011;3132;42.622;23.328;2024-02-15T01:03:15;16.13;;;14.83;;
6197;SDS011;3132;42.622;23.328;2024-02-15T01:05:40;17.00;;;15.57;;
6197;SDS011;3132;42.622;23.328;2024-02-15T01:08:06;16.70;;;15.30;;
6197;SDS011;3132;42.622;23.328;2024-02-15T01:10:31;16.83;;;15.43;;
6197;SDS011;3132;42.622;23.328;2024-02-15T01:12:56;16.80;;;15.50;;
6197;SDS011;3132;42.622;23.328;2024-02-15T01:15:22;16.83;;;15.50;;
6197;SDS011;3132;42.622;23.328;2024-02-15T01:17:47;17.63;;;15.90;;
6197;SDS011;3132;42.622;23.328;2024-02-15T01:20:13;15.70;;;14.50;;
6197;SDS011;3132;42.622;23.328;2024-02-15T01:22:38;16.63;;;15.33;;
6197;SDS011;3132;42.622;23.328;2024-02-15T01:25:04;15.90;;;14.63;;
6197;SDS011;3132;42.622;23.328;2024-02-15T01:27:29;16.80;;;15.60;;
6197;SDS011;3132;42.622;23.328;2024-02-15T01:29:55;15.90;;;14.63;;
6197;SDS011;3132;42.622;23.328;2024-02-15T01:32:23;16.57;;;15.10;;
6197;SDS011;3132;42.622;23.328;2024-02-15T01:34:49;17.00;;;15.70;;
6197;SDS011;3132;42.622;23.328;2024-02-15T01:37:16;17.23;;;15.83;;
6197;SDS011;3132;42.622;23.328;2024-02-15T01:39:42;16.30;;;14.70;;
6197;SDS011;3132;42.622;23.328;2024-02-15T01:42:07;18.90;;;17.07;;
6197;SDS011;3132;42.622;23.328;2024-02-15T01:44:33;15.70;;;14.53;;
6197;SDS011;3132;42.622;23.328;2024-02-15T01:46:58;16.77;;;15.37;;
6197;SDS011;3132;42.622;23.328;2024-02-15T01:49:25;15.47;;;13.97;;
6197;SDS011;3132;42.622;23.328;2024-02-15T01:51:52;15.73;;;14.43;;
6197;SDS011;3132;42.622;23.328;2024-02-15T01:54:21;16.80;;;15.07;;
6197;SDS011;3132;42.622;23.328;2024-02-15T01:56:47;15.43;;;14.23;;
6197;SDS011;3132;42.622;23.328;2024-02-15T01:59:14;17.00;;;15.60;;
6197;SDS011;3132;42.622;23.328;2024-02-15T02:01:40;16.33;;;14.80;;
6197;SDS011;3132;42.622;23.328;2024-02-15T02:04:07;16.80;;;15.50;;
6197;SDS011;3132;42.622;23.328;2024-02-15T02:06:32;17.50;;;16.10;;
6197;SDS011;3132;42.622;23.328;2024-02-15T02:08:58;17.63;;;16.13;;
6197;SDS011;3132;42.622;23.328;2024-02-15T02:11:24;15.20;;;14.00;;
6197;SDS011;3132;42.622;23.328;2024-02-15T02:13:49;17.73;;;16.03;;
6197;SDS011;3132;42.622;23.328;2024-02-15T02:16:29;16.57;;;15.03;;
6197;SDS011;3132;42.622;23.328;2024-02-15T02:18:56;16.57;;;15.17;;
6197;SDS011;3132;42.622;23.328;2024-02-15T02:21:25;16.80;;;15.30;;
6197;SDS011;3132;42.622;23.328;2024-02-15T02:23:58;15.60;;;14.33;;
6197;SDS011;3132;42.622;23.328;2024-02-15T02:26:24;17.37;;;15.83;;
6197;SDS011;3132;42.622;23.328;2024-02-15T02:28:50;17.30;;;15.50;;
6197;SDS011;3132;42.622;23.328;2024-02-15T02:31:18;15.60;;;14.33;;
6197;SDS011;3132;42.622;23.328;2024-02-15T02:33:47;15.90;;;14.70;;
6197;SDS011;3132;42.622;23.328;2024-02-15T02:36:17;17.20;;;15.73;;
6197;SDS011;3132;42.622;23.328;2024-02-15T02:38:42;17.67;;;15.50;;
6197;SDS011;3132;42.622;23.328;2024-02-15T02:41:10;15.60;;;14.13;;
6197;SDS011;3132;42.622;23.328;2024-02-15T02:43:36;15.27;;;14.03;;
6197;SDS011;3132;42.622;23.328;2024-02-15T02:46:02;16.77;;;15.40;;
6197;SDS011;3132;42.622;23.328;2024-02-15T02:48:30;16.63;;;15.07;;
6197;SDS011;3132;42.622;23.328;2024-02-15T02:50:56;16.60;;;15.10;;
6197;SDS011;3132;42.622;23.328;2024-02-15T02:53:21;16.17;;;14.73;;
6197;SDS011;3132;42.622;23.328;2024-02-15T02:55:47;16.67;;;15.33;;
6197;SDS011;3132;42.622;23.328;2024-02-15T02:58:12;18.33;;;15.77;;
6197;SDS011;3132;42.622;23.328;2024-02-15T03:00:37;15.67;;;14.00;;
6197;SDS011;3132;42.622;23.328;2024-02-15T03:03:04;17.53;;;16.10;;
6197;SDS011;3132;42.622;23.328;2024-02-15T03:05:30;17.10;;;15.60;;
6197;SDS011;3132;42.622;23.328;2024-02-15T03:07:56;16.97;;;15.57;;
6197;SDS011;3132;42.622;23.328;2024-02-15T03:10:22;16.43;;;15.03;;
6197;SDS011;3132;42.622;23.328;2024-02-15T03:12:49;16.97;;;15.63;;
6197;SDS011;3132;42.622;23.328;2024-02-15T03:15:15;16.40;;;15.00;;
6197;SDS011;3132;42.622;23.328;2024-02-15T03:17:40;17.07;;;15.50;;
6197;SDS011;3132;42.622;23.328;2024-02-15T03:20:07;16.53;;;15.17;;
6197;SDS011;3132;42.622;23.328;2024-02-15T03:22:45;17.63;;;16.33;;
6197;SDS011;3132;42.622;23.328;2024-02-15T03:25:15;15.13;;;13.77;;
6197;SDS011;3132;42.622;23.328;2024-02-15T03:27:40;16.47;;;14.87;;
6197;SDS011;3132;42.622;23.328;2024-02-15T03:30:06;16.53;;;15.20;;
6197;SDS011;3132;42.622;23.328;2024-02-15T03:32:31;15.83;;;14.67;;
6197;SDS011;3132;42.622;23.328;2024-02-15T03:34:57;18.20;;;16.67;;
6197;SDS011;3132;42.622;23.328;2024-02-15T03:37:22;15.77;;;14.20;;
6197;SDS011;3132;42.622;23.328;2024-02-15T03:39:48;17.67;;;16.17;;
6197;SDS011;3132;42.622;23.328;2024-02-15T03:42:13;16.87;;;15.07;;
6197;SDS011;3132;42.622;23.328;2024-02-15T03:44:38;15.73;;;14.53;;
6197;SDS011;3132;42.622;23.328;2024-02-15T03:47:04;17.37;;;15.97;;
6197;SDS011;3132;42.622;23.328;2024-02-15T03:49:30;15.50;;;14.03;;
6197;SDS011;3132;42.622;23.328;2024-02-15T03:51:56;19.50;;;16.17;;
6197;SDS011;3132;42.622;23.328;2024-02-15T03:54:24;18.33;;;16.37;;
6197;SDS011;3132;42.622;23.328;2024-02-15T03:56:50;17.23;;;15.63;;
6197;SDS011;3132;42.622;23.328;2024-02-15T03:59:19;17.90;;;16.30;;
6197;SDS011;3132;42.622;23.328;2024-02-15T04:01:47;18.50;;;16.60;;
6197;SDS011;3132;42.622;23.328;2024-02-15T04:04:12;16.67;;;15.27;;
6197;SDS011;3132;42.622;23.328;2024-02-15T04:06:38;17.17;;;15.70;;
6197;SDS011;3132;42.622;23.328;2024-02-15T04:09:06;16.93;;;15.33;;
6197;SDS011;3132;42.622;23.328;2024-02-15T04:11:32;16.90;;;15.40;;
6197;SDS011;3132;42.622;23.328;2024-02-15T04:13:58;15.60;;;14.13;;
6197;SDS011;3132;42.622;23.328;2024-02-15T04:16:23;19.00;;;16.00;;
6197;SDS011;3132;42.622;23.328;2024-02-15T04:18:50;17.13;;;15.57;;
6197;SDS011;3132;42.622;23.328;2024-02-15T04:21:15;16.07;;;14.57;;
6197;SDS011;3132;42.622;23.328;2024-02-15T04:23:44;17.07;;;15.67;;
6197;SDS011;3132;42.622;23.328;2024-02-15T04:26:10;17.47;;;15.87;;
6197;SDS011;3132;42.622;23.328;2024-02-15T04:28:39;21.80;;;17.07;;
6197;SDS011;3132;42.622;23.328;2024-02-15T04:31:07;17.93;;;16.20;;
6197;SDS011;3132;42.622;23.328;2024-02-15T04:33:37;17.27;;;15.90;;
6197;SDS011;3132;42.622;23.328;2024-02-15T04:36:02;18.20;;;16.57;;
6197;SDS011;3132;42.622;23.328;2024-02-15T04:38:31;20.27;;;17.33;;
6197;SDS011;3132;42.622;23.328;2024-02-15T04:40:58;17.50;;;15.80;;
6197;SDS011;3132;42.622;23.328;2024-02-15T04:43:25;17.53;;;15.97;;
6197;SDS011;3132;42.622;23.328;2024-02-15T04:45:50;17.57;;;15.50;;
6197;SDS011;3132;42.622;23.328;2024-02-15T04:48:16;18.23;;;16.53;;
6197;SDS011;3132;42.622;23.328;2024-02-15T04:50:44;17.67;;;16.07;;
6197;SDS011;3132;42.622;23.328;2024-02-15T04:53:10;22.07;;;16.47;;
6197;SDS011;3132;42.622;23.328;2024-02-15T04:55:36;17.87;;;16.23;;
6197;SDS011;3132;42.622;23.328;2024-02-15T04:58:01;18.40;;;16.70;;
6197;SDS011;3132;42.622;23.328;2024-02-15T05:00:27;18.20;;;16.57;;
6197;SDS011;3132;42.622;23.328;2024-02-15T05:02:53;16.43;;;15.13;;
6197;SDS011;3132;42.622;23.328;2024-02-15T05:05:19;16.10;;;14.77;;
6197;SDS011;3132;42.622;23.328;2024-02-15T05:07:45;17.17;;;15.53;;
6197;SDS011;3132;42.622;23.328;2024-02-15T05:10:10;18.53;;;16.83;;
6197;SDS011;3132;42.622;23.328;2024-02-15T05:12:37;18.37;;;16.73;;
6197;SDS011;3132;42.622;23.328;2024-02-15T05:15:03;17.00;;;15.40;;
6197;SDS011;3132;42.622;23.328;2024-02-15T05:17:36;18.77;;;17.17;;
6197;SDS011;3132;42.622;23.328;2024-02-15T05:20:02;18.27;;;16.57;;
6197;SDS011;3132;42.622;23.328;2024-02-15T05:22:35;17.83;;;16.07;;
6197;SDS011;3132;42.622;23.328;2024-02-15T05:25:01;16.73;;;15.03;;
6197;SDS011;3132;42.622;23.328;2024-02-15T05:27:30;18.97;;;17.07;;
6197;SDS011;3132;42.622;23.328;2024-02-15T05:29:56;16.20;;;14.90;;
6197;SDS011;3132;42.622;23.328;2024-02-15T05:32:21;16.40;;;14.80;;
6197;SDS011;3132;42.622;23.328;2024-02-15T05:34:47;16.57;;;15.17;;
6197;SDS011;3132;42.622;23.328;2024-02-15T05:37:12;17.30;;;15.67;;
6197;SDS011;3132;42.622;23.328;2024-02-15T05:39:39;16.97;;;15.37;;
6197;SDS011;3132;42.622;23.328;2024-02-15T05:42:05;17.67;;;16.17;;
6197;SDS011;3132;42.622;23.328;2024-02-15T05:44:30;16.37;;;14.83;;
6197;SDS011;3132;42.622;23.328;2024-02-15T05:46:55;16.43;;;15.03;;
6197;SDS011;3132;42.622;23.328;2024-02-15T05:49:21;15.63;;;14.43;;
6197;SDS011;3132;42.622;23.328;2024-02-15T05:51:49;15.97;;;14.57;;
6197;SDS011;3132;42.622;23.328;2024-02-15T05:54:14;17.60;;;15.93;;
6197;SDS011;3132;42.622;23.328;2024-02-15T05:56:39;16.93;;;14.63;;
6197;SDS011;3132;42.622;23.328;2024-02-15T05:59:07;16.80;;;15.17;;
6197;SDS011;3132;42.622;23.328;2024-02-15T06:01:39;18.13;;;16.40;;
6197;SDS011;3132;42.622;23.328;2024-02-15T06:04:05;17.50;;;15.67;;
6197;SDS011;3132;42.622;23.328;2024-02-15T06:06:36;16.63;;;15.27;;
6197;SDS011;3132;42.622;23.328;2024-02-15T06:09:03;16.87;;;15.33;;
6197;SDS011;3132;42.622;23.328;2024-02-15T06:11:29;16.13;;;14.73;;
6197;SDS011;3132;42.622;23.328;2024-02-15T06:13:55;16.33;;;14.67;;
6197;SDS011;3132;42.622;23.328;2024-02-15T06:16:20;16.90;;;15.23;;
6197;SDS011;3132;42.622;23.328;2024-02-15T06:18:46;16.37;;;14.93;;
6197;SDS011;3132;42.622;23.328;2024-02-15T06:21:13;20.83;;;15.67;;
6197;SDS011;3132;42.622;23.328;2024-02-15T06:23:38;15.63;;;14.23;;
6197;SDS011;3132;42.622;23.328;2024-02-15T06:26:04;15.87;;;14.67;;
6197;SDS011;3132;42.622;23.328;2024-02-15T06:28:30;15.33;;;13.93;;
6197;SDS011;3132;42.622;23.328;2024-02-15T06:31:14;17.73;;;16.00;;
6197;SDS011;3132;42.622;23.328;2024-02-15T06:33:58;16.67;;;15.17;;
6197;SDS011;3132;42.622;23.328;2024-02-15T06:36:48;15.80;;;14.50;;
6197;SDS011;3132;42.622;23.328;2024-02-15T06:39:33;15.27;;;13.83;;
6197;SDS011;3132;42.622;23.328;2024-02-15T06:42:15;17.37;;;15.70;;
6197;SDS011;3132;42.622;23.328;2024-02-15T06:44:43;15.90;;;14.57;;
6197;SDS011;3132;42.622;23.328;2024-02-15T06:47:09;16.70;;;15.43;;
6197;SDS011;3132;42.622;23.328;2024-02-15T06:49:36;18.90;;;17.13;;
6197;SDS011;3132;42.622;23.328;2024-02-15T06:52:05;15.97;;;14.57;;
6197;SDS011;3132;42.622;23.328;2024-02-15T06:54:34;17.60;;;15.53;;
6197;SDS011;3132;42.622;23.328;2024-02-15T06:57:03;17.27;;;15.77;;
6197;SDS011;3132;42.622;23.328;2024-02-15T06:59:29;16.50;;;15.03;;
6197;SDS011;3132;42.622;23.328;2024-02-15T07:01:57;17.10;;;15.43;;
6197;SDS011;3132;42.622;23.328;2024-02-15T07:04:23;15.63;;;14.27;;
6197;SDS011;3132;42.622;23.328;2024-02-15T07:06:50;16.83;;;15.30;;
6197;SDS011;3132;42.622;23.328;2024-02-15T07:09:17;17.17;;;15.50;;
6197;SDS011;3132;42.622;23.328;2024-02-15T07:11:45;14.73;;;13.43;;
6197;SDS011;3132;42.622;23.328;2024-02-15T07:14:11;14.40;;;13.40;;
6197;SDS011;3132;42.622;23.328;2024-02-15T07:16:37;15.53;;;14.20;;
6197;SDS011;3132;42.622;23.328;2024-02-15T07:19:03;16.47;;;15.07;;
6197;SDS011;3132;42.622;23.328;2024-02-15T07:21:28;17.13;;;15.43;;
6197;SDS011;3132;42.622;23.328;2024-02-15T07:23:54;16.03;;;14.63;;
6197;SDS011;3132;42.622;23.328;2024-02-15T07:26:20;16.50;;;15.00;;
6197;SDS011;3132;42.622;23.328;2024-02-15T07:28:49;18.53;;;16.73;;
6197;SDS011;3132;42.622;23.328;2024-02-15T07:31:17;16.90;;;15.23;;
6197;SDS011;3132;42.622;23.328;2024-02-15T07:33:42;15.73;;;14.20;;
6197;SDS011;3132;42.622;23.328;2024-02-15T07:36:08;14.87;;;13.37;;
6197;SDS011;3132;42.622;23.328;2024-02-15T07:38:34;15.67;;;14.07;;
6197;SDS011;3132;42.622;23.328;2024-02-15T07:40:59;15.47;;;13.87;;
6197;SDS011;3132;42.622;23.328;2024-02-15T07:43:25;15.47;;;13.67;;
6197;SDS011;3132;42.622;23.328;2024-02-15T07:45:51;16.20;;;14.93;;
6197;SDS011;3132;42.622;23.328;2024-02-15T07:48:17;14.80;;;13.50;;
6197;SDS011;3132;42.622;23.328;2024-02-15T07:50:42;15.90;;;14.60;;
6197;SDS011;3132;42.622;23.328;2024-02-15T07:53:08;16.47;;;14.93;;
6197;SDS011;3132;42.622;23.328;2024-02-15T07:55:36;15.67;;;14.20;;
6197;SDS011;3132;42.622;23.328;2024-02-15T07:58:02;16.03;;;14.53;;
6197;SDS011;3132;42.622;23.328;2024-02-15T08:00:28;15.23;;;13.83;;
6197;SDS011;3132;42.622;23.328;2024-02-15T08:02:54;16.13;;;14.77;;
6197;SDS011;3132;42.622;23.328;2024-02-15T08:05:22;17.33;;;14.97;;
6197;SDS011;3132;42.622;23.328;2024-02-15T08:07:47;14.20;;;13.13;;
6197;SDS011;3132;42.622;23.328;2024-02-15T08:10:12;15.37;;;14.27;;
6197;SDS011;3132;42.622;23.328;2024-02-15T08:12:41;15.07;;;13.47;;
6197;SDS011;3132;42.622;23.328;2024-02-15T08:15:08;16.10;;;14.47;;
6197;SDS011;3132;42.622;23.328;2024-02-15T08:17:40;16.10;;;14.73;;
6197;SDS011;3132;42.622;23.328;2024-02-15T08:20:07;16.50;;;14.93;;
6197;SDS011;3132;42.622;23.328;2024-02-15T08:22:34;16.07;;;14.33;;
6197;SDS011;3132;42.622;23.328;2024-02-15T08:25:02;15.40;;;14.10;;
6197;SDS011;3132;42.622;23.328;2024-02-15T08:27:29;14.87;;;13.77;;
6197;SDS011;3132;42.622;23.328;2024-02-15T08:29:57;16.17;;;14.83;;
6197;SDS011;3132;42.622;23.328;2024-02-15T08:32:23;16.53;;;15.00;;
6197;SDS011;3132;42.622;23.328;2024-02-15T08:34:49;16.43;;;14.60;;
6197;SDS011;3132;42.622;23.328;2024-02-15T08:37:15;16.60;;;15.10;;
6197;SDS011;3132;42.622;23.328;2024-02-15T08:39:40;16.53;;;15.03;;
6197;SDS011;3132;42.622;23.328;2024-02-15T08:42:05;14.70;;;13.53;;
6197;SDS011;3132;42.622;23.328;2024-02-15T08:44:31;15.33;;;13.83;;
6197;SDS011;3132;42.622;23.328;2024-02-15T08:46:56;14.87;;;13.67;;
6197;SDS011;3132;42.622;23.328;2024-02-15T08:49:22;16.23;;;14.73;;
6197;SDS011;3132;42.622;23.328;2024-02-15T08:51:47;15.77;;;14.30;;
6197;SDS011;3132;42.622;23.328;2024-02-15T08:54:12;15.97;;;14.67;;
6197;SDS011;3132;42.622;23.328;2024-02-15T08:56:38;15.77;;;14.37;;
6197;SDS011;3132;42.622;23.328;2024-02-15T08:59:03;15.13;;;13.83;;
6197;SDS011;3132;42.622;23.328;2024-02-15T09:01:28;16.70;;;15.00;;
6197;SDS011;3132;42.622;23.328;2024-02-15T09:03:55;15.63;;;14.10;;
6197;SDS011;3132;42.622;23.328;2024-02-15T09:06:20;14.67;;;13.47;;
6197;SDS011;3132;42.622;23.328;2024-02-15T09:08:47;15.77;;;14.60;;
6197;SDS011;3132;42.622;23.328;2024-02-15T09:11:13;16.60;;;15.20;;
6197;SDS011;3132;42.622;23.328;2024-02-15T09:13:39;16.27;;;14.87;;
6197;SDS011;3132;42.622;23.328;2024-02-15T09:16:04;14.57;;;13.20;;
6197;SDS011;3132;42.622;23.328;2024-02-15T09:18:30;16.43;;;14.93;;
6197;SDS011;3132;42.622;23.328;2024-02-15T09:20:55;16.57;;;15.17;;
6197;SDS011;3132;42.622;23.328;2024-02-15T09:23:23;18.20;;;14.83;;
6197;SDS011;3132;42.622;23.328;2024-02-15T09:25:49;17.00;;;15.40;;
6197;SDS011;3132;42.622;23.328;2024-02-15T09:28:16;16.97;;;15.47;;
6197;SDS011;3132;42.622;23.328;2024-02-15T09:30:47;16.97;;;15.47;;
6197;SDS011;3132;42.622;23.328;2024-02-15T09:33:21;15.87;;;14.33;;
6197;SDS011;3132;42.622;23.328;2024-02-15T09:35:46;16.47;;;14.97;;
6197;SDS011;3132;42.622;23.328;2024-02-15T09:38:12;16.30;;;14.90;;
6197;SDS011;3132;42.622;23.328;2024-02-15T09:40:38;15.83;;;14.33;;
6197;SDS011;3132;42.622;23.328;2024-02-15T09:43:03;16.33;;;14.93;;
6197;SDS011;3132;42.622;23.328;2024-02-15T09:45:28;15.77;;;14.30;;
6197;SDS011;3132;42.622;23.328;2024-02-15T09:47:54;15.17;;;13.90;;
6197;SDS011;3132;42.622;23.328;2024-02-15T09:50:25;15.80;;;14.17;;
6197;SDS011;3132;42.622;23.328;2024-02-15T09:52:58;17.17;;;15.57;;
6197;SDS011;3132;42.622;23.328;2024-02-15T09:55:24;17.40;;;15.80;;
6197;SDS011;3132;42.622;23.328;2024-02-15T09:57:50;17.10;;;14.93;;
6197;SDS011;3132;42.622;23.328;2024-02-15T10:00:16;16.53;;;15.10;;
6197;SDS011;3132;42.622;23.328;2024-02-15T10:02:42;16.17;;;14.70;;
6197;SDS011;3132;42.622;23.328;2024-02-15T10:05:11;17.20;;;14.87;;
6197;SDS011;3132;42.622;23.328;2024-02-15T10:07:40;16.67;;;15.10;;
6197;SDS011;3132;42.622;23.328;2024-02-15T10:10:19;15.80;;;14.50;;
6197;SDS011;3132;42.622;23.328;2024-02-15T10:12:46;16.47;;;15.03;;
6197;SDS011;3132;42.622;23.328;2024-02-15T10:17:57;15.80;;;14.23;;
6197;SDS011;3132;42.622;23.328;2024-02-15T10:20:26;15.20;;;13.50;;
6197;SDS011;3132;42.622;23.328;2024-02-15T10:22:52;16.13;;;14.53;;
6197;SDS011;3132;42.622;23.328;2024-02-15T10:25:25;16.70;;;15.00;;
6197;SDS011;3132;42.622;23.328;2024-02-15T10:27:52;15.83;;;14.43;;
6197;SDS011;3132;42.622;23.328;2024-02-15T10:30:26;16.57;;;14.87;;
6197;SDS011;3132;42.622;23.328;2024-02-15T10:32:52;19.97;;;15.63;;
6197;SDS011;3132;42.622;23.328;2024-02-15T10:35:20;15.33;;;13.73;;
6197;SDS011;3132;42.622;23.328;2024-02-15T10:37:49;16.27;;;14.43;;
6197;SDS011;3132;42.622;23.328;2024-02-15T10:40:22;15.63;;;14.37;;
6197;SDS011;3132;42.622;23.328;2024-02-15T10:42:48;16.13;;;14.63;;
6197;SDS011;3132;42.622;23.328;2024-02-15T10:45:16;16.37;;;14.77;;
6197;SDS011;3132;42.622;23.328;2024-02-15T10:47:45;15.80;;;14.20;;
6197;SDS011;3132;42.622;23.328;2024-02-15T10:50:12;16.43;;;15.03;;
6197;SDS011;3132;42.622;23.328;2024-02-15T10:52:41;15.40;;;14.00;;
6197;SDS011;3132;42.622;23.328;2024-02-15T10:55:13;16.93;;;15.33;;
6197;SDS011;3132;42.622;23.328;2024-02-15T10:57:46;16.93;;;15.33;;
6197;SDS011;3132;42.622;23.328;2024-02-15T11:00:16;17.33;;;15.73;;
6197;SDS011;3132;42.622;23.328;2024-02-15T11:02:53;19.43;;;15.63;;
6197;SDS011;3132;42.622;23.328;2024-02-15T11:05:33;17.10;;;15.40;;
6197;SDS011;3132;42.622;23.328;2024-02-15T11:08:09;15.40;;;14.03;;
6197;SDS011;3132;42.622;23.328;2024-02-15T11:10:35;14.33;;;13.23;;
6197;SDS011;3132;42.622;23.328;2024-02-15T11:13:02;19.10;;;17.23;;
6197;SDS011;3132;42.622;23.328;2024-02-15T11:18:04;16.50;;;14.93;;
6197;SDS011;3132;42.622;23.328;2024-02-15T11:22:59;15.37;;;14.07;;
6197;SDS011;3132;42.622;23.328;2024-02-15T11:30:49;15.30;;;13.93;;
6197;SDS011;3132;42.622;23.328;2024-02-15T11:36:07;23.40;;;14.30;;
6197;SDS011;3132;42.622;23.328;2024-02-15T11:38:35;14.90;;;13.67;;
6197;SDS011;3132;42.622;23.328;2024-02-15T11:41:04;14.03;;;12.93;;
6197;SDS011;3132;42.622;23.328;2024-02-15T11:46:08;13.40;;;12.37;;
6197;SDS011;3132;42.622;23.328;2024-02-15T11:48:35;15.03;;;13.73;;
6197;SDS011;3132;42.622;23.328;2024-02-15T11:51:04;14.60;;;13.33;;
6197;SDS011;3132;42.622;23.328;2024-02-15T11:53:31;15.90;;;14.50;;
6197;SDS011;3132;42.622;23.328;2024-02-15T11:56:00;14.87;;;13.30;;
6197;SDS011;3132;42.622;23.328;2024-02-15T11:58:27;13.17;;;12.17;;
6197;SDS011;3132;42.622;23.328;2024-02-15T12:01:17;14.40;;;13.33;;
6197;SDS011;3132;42.622;23.328;2024-02-15T12:04:02;13.90;;;12.73;;
6197;SDS011;3132;42.622;23.328;2024-02-15T12:06:46;13.60;;;12.50;;
6197;SDS011;3132;42.622;23.328;2024-02-15T12:09:30;15.03;;;13.70;;
6197;SDS011;3132;42.622;23.328;2024-02-15T12:12:14;13.63;;;12.63;;
6197;SDS011;3132;42.622;23.328;2024-02-15T12:14:59;14.60;;;13.50;;
6197;SDS011;3132;42.622;23.328;2024-02-15T12:17:44;14.43;;;13.23;;
6197;SDS011;3132;42.622;23.328;2024-02-15T12:20:28;13.37;;;12.37;;
6197;SDS011;3132;42.622;23.328;2024-02-15T12:22:53;13.40;;;12.27;;
6197;SDS011;3132;42.622;23.328;2024-02-15T12:25:20;13.47;;;12.47;;
6197;SDS011;3132;42.622;23.328;2024-02-15T12:27:53;14.63;;;13.53;;
6197;SDS011;3132;42.622;23.328;2024-02-15T12:30:19;14.03;;;12.70;;
6197;SDS011;3132;42.622;23.328;2024-02-15T12:32:46;13.23;;;12.23;;
6197;SDS011;3132;42.622;23.328;2024-02-15T12:35:21;14.30;;;13.23;;
6197;SDS011;3132;42.622;23.328;2024-02-15T12:40:37;12.77;;;11.97;;
6197;SDS011;3132;42.622;23.328;2024-02-15T12:43:06;13.80;;;12.90;;
6197;SDS011;3132;42.622;23.328;2024-02-15T12:45:35;13.27;;;12.27;;
6197;SDS011;3132;42.622;23.328;2024-02-15T12:48:05;14.30;;;13.10;;
6197;SDS011;3132;42.622;23.328;2024-02-15T12:50:32;13.53;;;12.47;;
6197;SDS011;3132;42.622;23.328;2024-02-15T12:52:59;13.63;;;12.43;;
6197;SDS011;3132;42.622;23.328;2024-02-15T12:55:27;15.90;;;14.43;;
6197;SDS011;3132;42.622;23.328;2024-02-15T12:57:56;13.00;;;12.03;;
6197;SDS011;3132;42.622;23.328;2024-02-15T13:00:22;14.57;;;13.30;;
6197;SDS011;3132;42.622;23.328;2024-02-15T13:02:53;13.20;;;12.03;;
6197;SDS011;3132;42.622;23.328;2024-02-15T13:05:21;12.43;;;11.40;;
6197;SDS011;3132;42.622;23.328;2024-02-15T13:07:47;13.83;;;12.73;;
6197;SDS011;3132;42.622;23.328;2024-02-15T13:10:13;14.57;;;13.30;;
6197;SDS011;3132;42.622;23.328;2024-02-15T13:12:40;13.80;;;12.70;;
6197;SDS011;3132;42.622;23.328;2024-02-15T13:15:15;13.43;;;12.30;;
6197;SDS011;3132;42.622;23.328;2024-02-15T13:17:45;13.40;;;12.40;;
6197;SDS011;3132;42.622;23.328;2024-02-15T13:20:14;13.97;;;12.87;;
6197;SDS011;3132;42.622;23.328;2024-02-15T13:22:43;14.30;;;13.13;;
6197;SDS011;3132;42.622;23.328;2024-02-15T13:25:12;13.30;;;12.07;;
6197;SDS011;3132;42.622;23.328;2024-02-15T13:27:41;14.13;;;13.10;;
6197;SDS011;3132;42.622;23.328;2024-02-15T13:30:08;14.10;;;12.83;;
6197;SDS011;3132;42.622;23.328;2024-02-15T13:32:37;14.33;;;12.97;;
6197;SDS011;3132;42.622;23.328;2024-02-15T13:35:04;13.47;;;12.57;;
6197;SDS011;3132;42.622;23.328;2024-02-15T13:37:38;13.53;;;12.60;;
6197;SDS011;3132;42.622;23.328;2024-02-15T13:40:14;13.20;;;12.33;;
6197;SDS011;3132;42.622;23.328;2024-02-15T13:42:43;14.33;;;13.00;;
6197;SDS011;3132;42.622;23.328;2024-02-15T13:48:16;14.57;;;13.33;;
6197;SDS011;3132;42.622;23.328;2024-02-15T13:50:42;14.53;;;13.23;;
6197;SDS011;3132;42.622;23.328;2024-02-15T13:53:07;38.90;;;14.37;;
6197;SDS011;3132;42.622;23.328;2024-02-15T13:55:34;13.13;;;12.07;;
6197;SDS011;3132;42.622;23.328;2024-02-15T13:58:00;13.20;;;12.40;;
6197;SDS011;3132;42.622;23.328;2024-02-15T14:00:26;11.53;;;10.57;;
6197;SDS011;3132;42.622;23.328;2024-02-15T14:02:56;13.53;;;12.40;;
6197;SDS011;3132;42.622;23.328;2024-02-15T14:05:23;13.37;;;12.40;;
6197;SDS011;3132;42.622;23.328;2024-02-15T14:07:54;12.83;;;11.83;;
6197;SDS011;3132;42.622;23.328;2024-02-15T14:10:21;13.00;;;12.10;;
6197;SDS011;3132;42.622;23.328;2024-02-15T14:12:51;13.20;;;12.17;;
6197;SDS011;3132;42.622;23.328;2024-02-15T14:15:20;12.93;;;11.83;;
6197;SDS011;3132;42.622;23.328;2024-02-15T14:17:46;13.93;;;12.53;;
6197;SDS011;3132;42.622;23.328;2024-02-15T14:20:11;13.57;;;12.33;;
6197;SDS011;3132;42.622;23.328;2024-02-15T14:22:44;13.67;;;12.77;;
6197;SDS011;3132;42.622;23.328;2024-02-15T14:25:14;13.13;;;11.90;;
6197;SDS011;3132;42.622;23.328;2024-02-15T14:27:40;14.00;;;12.90;;
6197;SDS011;3132;42.622;23.328;2024-02-15T14:30:06;13.37;;;12.30;;
6197;SDS011;3132;42.622;23.328;2024-02-15T14:33:04;22.70;;;17.27;;
6197;SDS011;3132;42.622;23.328;2024-02-15T14:35:30;34.60;;;20.90;;
6197;SDS011;3132;42.622;23.328;2024-02-15T14:38:03;20.27;;;16.37;;
6197;SDS011;3132;42.622;23.328;2024-02-15T14:40:43;15.17;;;13.07;;
6197;SDS011;3132;42.622;23.328;2024-02-15T14:43:11;13.87;;;12.80;;
6197;SDS011;3132;42.622;23.328;2024-02-15T14:45:40;13.33;;;12.37;;
6197;SDS011;3132;42.622;23.328;2024-02-15T14:48:09;13.97;;;12.93;;
6197;SDS011;3132;42.622;23.328;2024-02-15T14:50:38;13.03;;;12.13;;
6197;SDS011;3132;42.622;23.328;2024-02-15T14:53:06;14.47;;;12.63;;
6197;SDS011;3132;42.622;23.328;2024-02-15T14:55:35;14.77;;;13.40;;
6197;SDS011;3132;42.622;23.328;2024-02-15T14:58:04;14.10;;;12.73;;
6197;SDS011;3132;42.622;23.328;2024-02-15T15:00:35;15.57;;;12.90;;
6197;SDS011;3132;42.622;23.328;2024-02-15T15:03:02;13.20;;;12.27;;
6197;SDS011;3132;42.622;23.328;2024-02-15T15:05:28;12.83;;;11.50;;
6197;SDS011;3132;42.622;23.328;2024-02-15T15:08:12;14.83;;;13.43;;